sensor_id;sensor_type;location;lat;lon;timestamp;pressure;altitude;pressure_sealevel;temperature;humidity
55757;BME280;41676;44.610;44.078;2023-04-22T00:01:07;99636.19;;;9.65;100.00
55757;BME280;41676;44.610;44.078;2023-04-22T00:06:08;99573.44;;;9.20;100.00
55757;BME280;41676;44.610;44.078;2023-04-22T00:11:09;99628.91;;;9.44;100.00
55757;BME280;41676;44.610;44.078;2023-04-22T00:16:10;99644.03;;;9.35;100.00
55757;BME280;41676;44.610;44.078;2023-04-22T00:21:11;99620.13;;;8.98;100.00
55757;BME280;41676;44.610;44.078;2023-04-22T00:26:12;99641.09;;;9.07;100.00
55757;BME280;41676;44.610;44.078;2023-04-22T00:31:12;99639.84;;;9.18;100.00
55757;BME280;41676;44.610;44.078;2023-04-22T00:36:13;99621.13;;;8.97;100.00
55757;BME280;41676;44.610;44.078;2023-04-22T00:41:14;99612.34;;;8.96;100.00
55757;BME280;41676;44.610;44.078;2023-04-22T00:46:15;99642.75;;;9.08;100.00
55757;BME280;41676;44.610;44.078;2023-04-22T00:51:16;99632.38;;;8.99;100.00
55757;BME280;41676;44.610;44.078;2023-04-22T00:56:18;99651.44;;;8.94;100.00
55757;BME280;41676;44.610;44.078;2023-04-22T01:01:20;99507.47;;;7.93;100.00
55757;BME280;41676;44.610;44.078;2023-04-22T01:06:23;99582.22;;;8.35;100.00
55757;BME280;41676;44.610;44.078;2023-04-22T01:11:24;99657.66;;;8.78;100.00
55757;BME280;41676;44.610;44.078;2023-04-22T01:16:25;99620.41;;;8.40;100.00
55757;BME280;41676;44.610;44.078;2023-04-22T01:21:28;99676.06;;;8.63;100.00
55757;BME280;41676;44.610;44.078;2023-04-22T01:26:29;99648.66;;;8.56;100.00
55757;BME280;41676;44.610;44.078;2023-04-22T01:31:29;99652.59;;;8.60;100.00
55757;BME280;41676;44.610;44.078;2023-04-22T01:36:30;99646.97;;;8.55;100.00
55757;BME280;41676;44.610;44.078;2023-04-22T01:41:33;99663.72;;;8.56;100.00
55757;BME280;41676;44.610;44.078;2023-04-22T01:46:34;99642.56;;;8.48;100.00
55757;BME280;41676;44.610;44.078;2023-04-22T01:51:35;99683.81;;;8.73;100.00
55757;BME280;41676;44.610;44.078;2023-04-22T01:56:36;99631.09;;;8.55;100.00
55757;BME280;41676;44.610;44.078;2023-04-22T02:01:39;99586.19;;;8.31;100.00
55757;BME280;41676;44.610;44.078;2023-04-22T02:06:40;99616.59;;;8.43;100.00
55757;BME280;41676;44.610;44.078;2023-04-22T02:11:41;99685.94;;;8.86;100.00
55757;BME280;41676;44.610;44.078;2023-04-22T02:16:42;99638.69;;;8.58;100.00
55757;BME280;41676;44.610;44.078;2023-04-22T02:21:43;99672.41;;;8.64;100.00
55757;BME280;41676;44.610;44.078;2023-04-22T02:26:43;99675.56;;;8.68;100.00
55757;BME280;41676;44.610;44.078;2023-04-22T02:31:45;99670.72;;;8.80;100.00
55757;BME280;41676;44.610;44.078;2023-04-22T02:36:46;99598.25;;;8.33;99.55
55757;BME280;41676;44.610;44.078;2023-04-22T02:41:47;99652.53;;;8.77;99.95
55757;BME280;41676;44.610;44.078;2023-04-22T02:46:47;99663.78;;;9.10;100.00
55757;BME280;41676;44.610;44.078;2023-04-22T02:51:48;99671.84;;;9.63;99.44
55757;BME280;41676;44.610;44.078;2023-04-22T02:56:49;99615.38;;;9.92;98.49
55757;BME280;41676;44.610;44.078;2023-04-22T03:01:50;99595.81;;;10.37;97.66
55757;BME280;41676;44.610;44.078;2023-04-22T03:06:51;99697.19;;;11.43;97.02
55757;BME280;41676;44.610;44.078;2023-04-22T03:11:52;99692.69;;;12.43;95.51
55757;BME280;41676;44.610;44.078;2023-04-22T03:16:53;99690.66;;;13.47;93.46
55757;BME280;41676;44.610;44.078;2023-04-22T03:21:53;99696.22;;;13.66;92.70
55757;BME280;41676;44.610;44.078;2023-04-22T03:26:55;99730.09;;;14.58;90.93
55757;BME280;41676;44.610;44.078;2023-04-22T03:31:56;99679.88;;;15.19;88.06
55757;BME280;41676;44.610;44.078;2023-04-22T03:36:57;99739.94;;;16.86;84.60
55757;BME280;41676;44.610;44.078;2023-04-22T03:41:58;99733.88;;;17.58;81.34
55757;BME280;41676;44.610;44.078;2023-04-22T03:46:59;99745.72;;;18.11;79.09
55757;BME280;41676;44.610;44.078;2023-04-22T03:51:59;99741.03;;;18.53;77.06
55757;BME280;41676;44.610;44.078;2023-04-22T03:57:00;99754.53;;;19.17;74.55
55757;BME280;41676;44.610;44.078;2023-04-22T04:02:02;99758.31;;;19.45;72.50
55757;BME280;41676;44.610;44.078;2023-04-22T04:07:03;99757.72;;;19.71;71.20
55757;BME280;41676;44.610;44.078;2023-04-22T04:12:04;99757.13;;;19.98;70.19
55757;BME280;41676;44.610;44.078;2023-04-22T04:17:04;99679.38;;;18.87;69.89
55757;BME280;41676;44.610;44.078;2023-04-22T04:22:09;99669.00;;;18.79;70.06
55757;BME280;41676;44.610;44.078;2023-04-22T04:27:10;99745.78;;;19.10;69.83
55757;BME280;41676;44.610;44.078;2023-04-22T04:32:11;99742.41;;;19.03;69.34
55757;BME280;41676;44.610;44.078;2023-04-22T04:37:12;99672.88;;;18.24;67.09
55757;BME280;41676;44.610;44.078;2023-04-22T04:42:12;99739.63;;;18.15;66.98
55757;BME280;41676;44.610;44.078;2023-04-22T04:47:13;99744.75;;;17.63;67.81
55757;BME280;41676;44.610;44.078;2023-04-22T04:52:14;99731.41;;;16.53;68.35
55757;BME280;41676;44.610;44.078;2023-04-22T04:57:15;99654.75;;;15.51;69.53
55757;BME280;41676;44.610;44.078;2023-04-22T05:02:16;99753.81;;;15.90;69.54
55757;BME280;41676;44.610;44.078;2023-04-22T05:07:16;99769.38;;;15.74;70.54
55757;BME280;41676;44.610;44.078;2023-04-22T05:12:17;99754.84;;;15.50;70.83
55757;BME280;41676;44.610;44.078;2023-04-22T05:17:18;99736.66;;;15.27;71.55
55757;BME280;41676;44.610;44.078;2023-04-22T05:22:20;99745.00;;;15.44;71.88
55757;BME280;41676;44.610;44.078;2023-04-22T05:27:21;99735.56;;;15.80;70.69
55757;BME280;41676;44.610;44.078;2023-04-22T05:32:22;99746.75;;;15.95;69.50
55757;BME280;41676;44.610;44.078;2023-04-22T05:37:22;99744.19;;;16.32;68.89
55757;BME280;41676;44.610;44.078;2023-04-22T05:42:23;99760.75;;;16.48;67.92
55757;BME280;41676;44.610;44.078;2023-04-22T05:47:24;99743.22;;;16.45;67.43
55757;BME280;41676;44.610;44.078;2023-04-22T05:52:25;99746.84;;;16.57;67.21
55757;BME280;41676;44.610;44.078;2023-04-22T05:57:25;99754.81;;;16.64;67.37
55757;BME280;41676;44.610;44.078;2023-04-22T06:02:26;99764.66;;;16.70;66.95
55757;BME280;41676;44.610;44.078;2023-04-22T06:07:27;99754.19;;;16.87;66.60
55757;BME280;41676;44.610;44.078;2023-04-22T06:12:28;99767.09;;;17.45;65.50
55757;BME280;41676;44.610;44.078;2023-04-22T06:17:29;99760.72;;;17.58;63.77
55757;BME280;41676;44.610;44.078;2023-04-22T06:22:30;99774.31;;;17.63;64.60
55757;BME280;41676;44.610;44.078;2023-04-22T06:27:31;99686.56;;;17.15;65.10
55757;BME280;41676;44.610;44.078;2023-04-22T06:32:31;99755.25;;;17.53;64.19
55757;BME280;41676;44.610;44.078;2023-04-22T06:37:32;99792.38;;;17.56;64.31
55757;BME280;41676;44.610;44.078;2023-04-22T06:42:33;99779.28;;;17.29;64.88
55757;BME280;41676;44.610;44.078;2023-04-22T06:47:34;99764.84;;;17.12;65.16
55757;BME280;41676;44.610;44.078;2023-04-22T06:52:35;99787.34;;;17.29;65.01
55757;BME280;41676;44.610;44.078;2023-04-22T06:57:36;99745.09;;;17.06;63.23
55757;BME280;41676;44.610;44.078;2023-04-22T07:02:37;99716.56;;;16.94;63.22
55757;BME280;41676;44.610;44.078;2023-04-22T07:07:37;99801.59;;;17.78;62.70
55757;BME280;41676;44.610;44.078;2023-04-22T07:12:38;99818.53;;;17.79;62.94
55757;BME280;41676;44.610;44.078;2023-04-22T07:17:39;99804.34;;;17.42;63.34
55757;BME280;41676;44.610;44.078;2023-04-22T07:22:40;99817.53;;;17.43;63.41
55757;BME280;41676;44.610;44.078;2023-04-22T07:27:41;99751.81;;;17.46;61.87
55757;BME280;41676;44.610;44.078;2023-04-22T07:32:41;99817.78;;;18.67;61.26
55757;BME280;41676;44.610;44.078;2023-04-22T07:37:42;99802.19;;;19.16;59.97
55757;BME280;41676;44.610;44.078;2023-04-22T07:42:43;99803.88;;;19.34;58.70
55757;BME280;41676;44.610;44.078;2023-04-22T07:47:44;99746.38;;;19.12;57.55
55757;BME280;41676;44.610;44.078;2023-04-22T07:52:45;99680.94;;;18.59;57.52
55757;BME280;41676;44.610;44.078;2023-04-22T07:57:45;99800.69;;;19.49;57.43
55757;BME280;41676;44.610;44.078;2023-04-22T08:02:46;99795.66;;;19.41;58.18
55757;BME280;41676;44.610;44.078;2023-04-22T08:07:47;99798.81;;;20.24;57.10
55757;BME280;41676;44.610;44.078;2023-04-22T08:12:48;99802.88;;;19.93;56.25
55757;BME280;41676;44.610;44.078;2023-04-22T08:17:49;99731.94;;;19.18;57.07
55757;BME280;41676;44.610;44.078;2023-04-22T08:22:50;99768.88;;;19.34;56.22
55757;BME280;41676;44.610;44.078;2023-04-22T08:27:56;99774.94;;;19.01;56.71
55757;BME280;41676;44.610;44.078;2023-04-22T08:32:57;99758.47;;;19.26;56.09
55757;BME280;41676;44.610;44.078;2023-04-22T08:37:58;99772.44;;;19.52;55.10
55757;BME280;41676;44.610;44.078;2023-04-22T08:42:58;99783.47;;;19.79;54.40
55757;BME280;41676;44.610;44.078;2023-04-22T08:47:59;99771.25;;;19.88;52.96
55757;BME280;41676;44.610;44.078;2023-04-22T08:53:01;99772.72;;;20.13;52.61
55757;BME280;41676;44.610;44.078;2023-04-22T08:58:03;99784.91;;;19.98;52.57
55757;BME280;41676;44.610;44.078;2023-04-22T09:03:05;99779.66;;;19.92;52.03
55757;BME280;41676;44.610;44.078;2023-04-22T09:08:07;99785.41;;;20.29;52.23
55757;BME280;41676;44.610;44.078;2023-04-22T09:13:08;99687.31;;;20.35;50.37
55757;BME280;41676;44.610;44.078;2023-04-22T09:18:09;99752.69;;;20.76;49.50
55757;BME280;41676;44.610;44.078;2023-04-22T09:23:11;99759.72;;;20.99;50.45
55757;BME280;41676;44.610;44.078;2023-04-22T09:28:17;99771.34;;;21.22;51.31
55757;BME280;41676;44.610;44.078;2023-04-22T09:33:18;99753.44;;;21.15;49.47
55757;BME280;41676;44.610;44.078;2023-04-22T09:38:19;99677.66;;;20.56;49.43
55757;BME280;41676;44.610;44.078;2023-04-22T09:43:20;99666.78;;;20.73;48.75
55757;BME280;41676;44.610;44.078;2023-04-22T09:48:21;99728.91;;;21.39;48.18
55757;BME280;41676;44.610;44.078;2023-04-22T09:53:22;99740.78;;;20.94;48.12
55757;BME280;41676;44.610;44.078;2023-04-22T09:58:23;99661.28;;;20.07;48.09
55757;BME280;41676;44.610;44.078;2023-04-22T10:03:26;99731.38;;;20.41;48.09
55757;BME280;41676;44.610;44.078;2023-04-22T10:08:28;99764.06;;;21.00;48.45
55757;BME280;41676;44.610;44.078;2023-04-22T10:13:30;99711.13;;;20.77;48.65
55757;BME280;41676;44.610;44.078;2023-04-22T10:18:36;99736.22;;;21.43;46.99
55757;BME280;41676;44.610;44.078;2023-04-22T10:23:44;99734.34;;;21.22;46.51
55757;BME280;41676;44.610;44.078;2023-04-22T10:28:46;99735.72;;;21.03;47.30
55757;BME280;41676;44.610;44.078;2023-04-22T10:33:47;99745.28;;;21.10;48.09
55757;BME280;41676;44.610;44.078;2023-04-22T10:44:05;99725.50;;;20.27;46.61
55757;BME280;41676;44.610;44.078;2023-04-22T10:49:13;99801.75;;;20.73;46.32
55757;BME280;41676;44.610;44.078;2023-04-22T10:59:46;99795.84;;;21.15;47.19
55757;BME280;41676;44.610;44.078;2023-04-22T11:04:48;99789.69;;;21.41;45.76
55757;BME280;41676;44.610;44.078;2023-04-22T11:09:50;99751.03;;;21.36;45.61
55757;BME280;41676;44.610;44.078;2023-04-22T11:14:52;99770.28;;;21.45;46.15
55757;BME280;41676;44.610;44.078;2023-04-22T11:19:52;99696.13;;;20.64;45.84
55757;BME280;41676;44.610;44.078;2023-04-22T11:24:56;99764.44;;;20.70;46.77
55757;BME280;41676;44.610;44.078;2023-04-22T11:30:09;99788.00;;;20.91;46.88
55757;BME280;41676;44.610;44.078;2023-04-22T11:35:14;99762.09;;;20.95;46.21
55757;BME280;41676;44.610;44.078;2023-04-22T11:40:32;99784.66;;;21.28;45.86
55757;BME280;41676;44.610;44.078;2023-04-22T11:45:35;99758.22;;;21.08;46.64
55757;BME280;41676;44.610;44.078;2023-04-22T11:50:39;99710.03;;;20.56;47.01
55757;BME280;41676;44.610;44.078;2023-04-22T11:55:40;99774.72;;;20.34;47.99
55757;BME280;41676;44.610;44.078;2023-04-22T12:00:45;99815.50;;;19.75;49.81
55757;BME280;41676;44.610;44.078;2023-04-22T12:05:51;99787.94;;;18.34;53.51
55757;BME280;41676;44.610;44.078;2023-04-22T12:10:56;99803.44;;;17.11;57.36
55757;BME280;41676;44.610;44.078;2023-04-22T12:16:03;99839.09;;;16.50;60.48
55757;BME280;41676;44.610;44.078;2023-04-22T12:21:07;99847.59;;;15.83;63.46
55757;BME280;41676;44.610;44.078;2023-04-22T12:26:09;99828.88;;;15.25;64.77
55757;BME280;41676;44.610;44.078;2023-04-22T12:31:10;99852.22;;;14.91;66.97
55757;BME280;41676;44.610;44.078;2023-04-22T12:36:12;99885.53;;;14.69;69.24
55757;BME280;41676;44.610;44.078;2023-04-22T12:41:13;99865.56;;;15.11;70.57
55757;BME280;41676;44.610;44.078;2023-04-22T12:46:15;99829.16;;;15.55;72.92
55757;BME280;41676;44.610;44.078;2023-04-22T12:51:16;99850.19;;;15.51;73.53
55757;BME280;41676;44.610;44.078;2023-04-22T12:56:17;99860.56;;;15.86;74.26
55757;BME280;41676;44.610;44.078;2023-04-22T13:01:18;99855.25;;;15.80;73.99
55757;BME280;41676;44.610;44.078;2023-04-22T13:06:18;99792.47;;;15.69;73.03
55757;BME280;41676;44.610;44.078;2023-04-22T13:11:20;99898.34;;;16.41;72.57
55757;BME280;41676;44.610;44.078;2023-04-22T13:16:21;99820.00;;;16.14;72.10
55757;BME280;41676;44.610;44.078;2023-04-22T13:21:22;99887.22;;;16.70;70.85
55757;BME280;41676;44.610;44.078;2023-04-22T13:26:22;99888.09;;;16.63;70.69
55757;BME280;41676;44.610;44.078;2023-04-22T13:31:23;99872.31;;;16.49;70.34
55757;BME280;41676;44.610;44.078;2023-04-22T13:36:24;99875.31;;;16.34;70.68
55757;BME280;41676;44.610;44.078;2023-04-22T13:41:25;99888.09;;;16.63;70.28
55757;BME280;41676;44.610;44.078;2023-04-22T13:46:26;99882.31;;;16.60;69.07
55757;BME280;41676;44.610;44.078;2023-04-22T13:51:27;99894.72;;;16.61;69.44
55757;BME280;41676;44.610;44.078;2023-04-22T13:56:28;99822.03;;;16.19;68.99
55757;BME280;41676;44.610;44.078;2023-04-22T14:01:29;99903.78;;;16.60;68.90
55757;BME280;41676;44.610;44.078;2023-04-22T14:06:30;99844.88;;;15.90;69.04
55757;BME280;41676;44.610;44.078;2023-04-22T14:11:31;99908.69;;;16.00;69.41
55757;BME280;41676;44.610;44.078;2023-04-22T14:16:31;99821.69;;;15.19;70.14
55757;BME280;41676;44.610;44.078;2023-04-22T14:21:32;99884.16;;;15.51;70.38
55757;BME280;41676;44.610;44.078;2023-04-22T14:26:33;99930.06;;;15.68;70.23
55757;BME280;41676;44.610;44.078;2023-04-22T14:31:34;99910.91;;;15.58;70.07
55757;BME280;41676;44.610;44.078;2023-04-22T14:36:35;99947.97;;;15.67;70.53
55757;BME280;41676;44.610;44.078;2023-04-22T14:41:36;99917.31;;;15.43;71.25
55757;BME280;41676;44.610;44.078;2023-04-22T14:46:36;99857.53;;;15.04;71.43
55757;BME280;41676;44.610;44.078;2023-04-22T14:51:37;99929.06;;;15.49;71.31
55757;BME280;41676;44.610;44.078;2023-04-22T14:56:38;99960.97;;;15.57;71.85
55757;BME280;41676;44.610;44.078;2023-04-22T15:01:39;99955.84;;;15.36;73.04
55757;BME280;41676;44.610;44.078;2023-04-22T15:06:42;99977.91;;;15.24;73.63
55757;BME280;41676;44.610;44.078;2023-04-22T15:11:43;99963.50;;;15.12;74.28
55757;BME280;41676;44.610;44.078;2023-04-22T15:16:43;99961.25;;;15.09;74.63
55757;BME280;41676;44.610;44.078;2023-04-22T15:21:44;99965.16;;;15.06;75.13
55757;BME280;41676;44.610;44.078;2023-04-22T15:26:47;99969.47;;;14.94;76.29
55757;BME280;41676;44.610;44.078;2023-04-22T15:31:47;99866.16;;;14.13;76.71
55757;BME280;41676;44.610;44.078;2023-04-22T15:36:48;99935.25;;;14.43;77.88
55757;BME280;41676;44.610;44.078;2023-04-22T15:41:49;100016.75;;;14.80;78.34
55757;BME280;41676;44.610;44.078;2023-04-22T15:46:51;100001.53;;;14.68;79.13
55757;BME280;41676;44.610;44.078;2023-04-22T15:51:52;100022.91;;;14.61;79.71
55757;BME280;41676;44.610;44.078;2023-04-22T15:56:53;100029.88;;;14.55;79.94
55757;BME280;41676;44.610;44.078;2023-04-22T16:01:54;100029.44;;;14.45;80.27
55757;BME280;41676;44.610;44.078;2023-04-22T16:12:05;100050.41;;;14.48;80.52
55757;BME280;41676;44.610;44.078;2023-04-22T16:17:06;99990.06;;;14.12;80.45
55757;BME280;41676;44.610;44.078;2023-04-22T16:22:07;100071.84;;;14.61;81.12
55757;BME280;41676;44.610;44.078;2023-04-22T16:27:08;99991.06;;;14.11;80.94
55757;BME280;41676;44.610;44.078;2023-04-22T16:32:10;100088.22;;;14.45;81.31
55757;BME280;41676;44.610;44.078;2023-04-22T16:37:10;100104.25;;;14.45;81.70
55757;BME280;41676;44.610;44.078;2023-04-22T16:47:22;100124.88;;;14.23;82.54
55757;BME280;41676;44.610;44.078;2023-04-22T16:52:22;100134.53;;;13.89;83.11
55757;BME280;41676;44.610;44.078;2023-04-22T16:57:23;100142.47;;;13.76;84.29
55757;BME280;41676;44.610;44.078;2023-04-22T17:02:24;100065.94;;;13.12;85.62
55757;BME280;41676;44.610;44.078;2023-04-22T17:07:25;100158.75;;;13.60;87.20
55757;BME280;41676;44.610;44.078;2023-04-22T17:12:26;100059.91;;;12.82;87.20
55757;BME280;41676;44.610;44.078;2023-04-22T17:17:26;100083.56;;;12.70;87.27
55757;BME280;41676;44.610;44.078;2023-04-22T17:22:27;100174.03;;;13.08;88.09
55757;BME280;41676;44.610;44.078;2023-04-22T17:27:28;100209.13;;;13.12;89.65
55757;BME280;41676;44.610;44.078;2023-04-22T17:32:29;100199.16;;;12.99;90.32
55757;BME280;41676;44.610;44.078;2023-04-22T17:37:29;100216.97;;;13.13;90.29
55757;BME280;41676;44.610;44.078;2023-04-22T17:42:30;100082.09;;;12.17;89.41
55757;BME280;41676;44.610;44.078;2023-04-22T17:47:32;100222.13;;;13.00;90.05
55757;BME280;41676;44.610;44.078;2023-04-22T17:52:32;100206.13;;;13.00;91.38
55757;BME280;41676;44.610;44.078;2023-04-22T17:57:33;100231.59;;;13.02;91.40
55757;BME280;41676;44.610;44.078;2023-04-22T18:02:34;100234.19;;;12.96;91.61
55757;BME280;41676;44.610;44.078;2023-04-22T18:07:35;100233.91;;;12.91;92.35
55757;BME280;41676;44.610;44.078;2023-04-22T18:12:36;100223.09;;;12.77;92.57
55757;BME280;41676;44.610;44.078;2023-04-22T18:17:37;100234.38;;;12.79;93.76
55757;BME280;41676;44.610;44.078;2023-04-22T18:22:37;100171.25;;;12.06;94.22
55757;BME280;41676;44.610;44.078;2023-04-22T18:27:38;100210.50;;;12.27;94.94
55757;BME280;41676;44.610;44.078;2023-04-22T18:32:40;100215.91;;;12.33;94.96
55757;BME280;41676;44.610;44.078;2023-04-22T18:37:45;100238.59;;;12.44;95.78
55757;BME280;41676;44.610;44.078;2023-04-22T18:42:45;100248.81;;;12.55;94.45
55757;BME280;41676;44.610;44.078;2023-04-22T18:47:48;100260.56;;;12.61;94.54
55757;BME280;41676;44.610;44.078;2023-04-22T18:52:48;100194.03;;;12.23;95.00
55757;BME280;41676;44.610;44.078;2023-04-22T18:57:49;100257.00;;;12.69;94.18
55757;BME280;41676;44.610;44.078;2023-04-22T19:02:50;100225.84;;;12.40;94.14
55757;BME280;41676;44.610;44.078;2023-04-22T19:07:51;100259.28;;;12.57;94.97
55757;BME280;41676;44.610;44.078;2023-04-22T19:12:51;100244.03;;;12.51;95.15
55757;BME280;41676;44.610;44.078;2023-04-22T19:17:52;100240.56;;;12.50;95.00
55757;BME280;41676;44.610;44.078;2023-04-22T19:22:53;100260.84;;;12.66;95.47
55757;BME280;41676;44.610;44.078;2023-04-22T19:27:54;100250.19;;;12.66;95.15
55757;BME280;41676;44.610;44.078;2023-04-22T19:32:55;100203.97;;;12.29;95.67
55757;BME280;41676;44.610;44.078;2023-04-22T19:37:56;100242.19;;;12.51;96.08
55757;BME280;41676;44.610;44.078;2023-04-22T19:42:56;100267.91;;;12.59;97.33
55757;BME280;41676;44.610;44.078;2023-04-22T19:47:58;100310.03;;;12.78;97.67
55757;BME280;41676;44.610;44.078;2023-04-22T19:53:00;100243.91;;;12.44;98.19
55757;BME280;41676;44.610;44.078;2023-04-22T19:58:04;100300.19;;;12.79;98.36
55757;BME280;41676;44.610;44.078;2023-04-22T20:03:06;100230.44;;;12.46;98.28
55757;BME280;41676;44.610;44.078;2023-04-22T20:08:07;100246.44;;;12.61;98.19
55757;BME280;41676;44.610;44.078;2023-04-22T20:13:09;100280.63;;;12.72;98.41
55757;BME280;41676;44.610;44.078;2023-04-22T20:18:10;100303.97;;;12.85;98.27
55757;BME280;41676;44.610;44.078;2023-04-22T20:23:13;100281.25;;;12.74;98.70
55757;BME280;41676;44.610;44.078;2023-04-22T20:28:14;100272.06;;;12.76;98.48
55757;BME280;41676;44.610;44.078;2023-04-22T20:33:15;100222.44;;;12.46;98.66
55757;BME280;41676;44.610;44.078;2023-04-22T20:38:16;100306.44;;;13.01;98.23
55757;BME280;41676;44.610;44.078;2023-04-22T20:43:18;100312.78;;;13.00;98.66
55757;BME280;41676;44.610;44.078;2023-04-22T20:48:19;100327.41;;;13.04;98.52
55757;BME280;41676;44.610;44.078;2023-04-22T20:53:21;100312.50;;;12.95;98.84
55757;BME280;41676;44.610;44.078;2023-04-22T20:58:22;100325.66;;;12.96;99.38
55757;BME280;41676;44.610;44.078;2023-04-22T21:03:25;100311.06;;;12.92;100.00
55757;BME280;41676;44.610;44.078;2023-04-22T21:08:26;100334.41;;;13.05;99.26
55757;BME280;41676;44.610;44.078;2023-04-22T21:13:27;100331.16;;;12.95;97.95
55757;BME280;41676;44.610;44.078;2023-04-22T21:18:31;100339.09;;;13.03;97.98
55757;BME280;41676;44.610;44.078;2023-04-22T21:23:33;100256.06;;;12.47;95.48
55757;BME280;41676;44.610;44.078;2023-04-22T21:28:34;100306.63;;;12.85;92.23
55757;BME280;41676;44.610;44.078;2023-04-22T21:33:35;100330.91;;;13.05;90.11
55757;BME280;41676;44.610;44.078;2023-04-22T21:38:36;100347.66;;;13.13;88.87
55757;BME280;41676;44.610;44.078;2023-04-22T21:43:36;100338.53;;;13.08;88.62
55757;BME280;41676;44.610;44.078;2023-04-22T21:48:37;100346.44;;;13.01;87.88
55757;BME280;41676;44.610;44.078;2023-04-22T21:53:38;100254.94;;;12.41;88.53
55757;BME280;41676;44.610;44.078;2023-04-22T21:58:39;100259.44;;;12.41;88.38
55757;BME280;41676;44.610;44.078;2023-04-22T22:03:40;100321.72;;;12.77;88.58
55757;BME280;41676;44.610;44.078;2023-04-22T22:08:41;100331.44;;;12.85;88.90
55757;BME280;41676;44.610;44.078;2023-04-22T22:13:41;100297.97;;;12.68;88.82
55757;BME280;41676;44.610;44.078;2023-04-22T22:18:42;100305.34;;;12.66;89.16
55757;BME280;41676;44.610;44.078;2023-04-22T22:23:45;100340.47;;;12.84;90.00
55757;BME280;41676;44.610;44.078;2023-04-22T22:28:46;100287.06;;;12.63;90.23
55757;BME280;41676;44.610;44.078;2023-04-22T22:33:46;100191.53;;;12.07;89.90
55757;BME280;41676;44.610;44.078;2023-04-22T22:38:47;100337.22;;;12.89;90.27
55757;BME280;41676;44.610;44.078;2023-04-22T22:43:48;100334.41;;;12.90;90.55
55757;BME280;41676;44.610;44.078;2023-04-22T22:48:49;100331.38;;;12.93;90.58
55757;BME280;41676;44.610;44.078;2023-04-22T22:53:50;100340.09;;;13.02;90.26
55757;BME280;41676;44.610;44.078;2023-04-22T22:58:51;100309.38;;;12.76;90.86
55757;BME280;41676;44.610;44.078;2023-04-22T23:03:51;100351.41;;;13.04;91.93
55757;BME280;41676;44.610;44.078;2023-04-22T23:08:52;100342.19;;;12.92;92.21
55757;BME280;41676;44.610;44.078;2023-04-22T23:13:53;100294.09;;;12.55;92.42
55757;BME280;41676;44.610;44.078;2023-04-22T23:18:54;100355.38;;;12.93;93.02
55757;BME280;41676;44.610;44.078;2023-04-22T23:23:55;100364.19;;;12.94;92.62
55757;BME280;41676;44.610;44.078;2023-04-22T23:28:56;100379.75;;;13.05;92.44
55757;BME280;41676;44.610;44.078;2023-04-22T23:34:00;100379.44;;;13.00;92.64
55757;BME280;41676;44.610;44.078;2023-04-22T23:39:05;100356.00;;;12.81;91.82
55757;BME280;41676;44.610;44.078;2023-04-22T23:44:09;100383.41;;;13.04;91.46
55757;BME280;41676;44.610;44.078;2023-04-22T23:49:09;100389.94;;;12.87;90.90
55757;BME280;41676;44.610;44.078;2023-04-22T23:54:10;100388.34;;;12.77;90.87
55757;BME280;41676;44.610;44.078;2023-04-22T23:59:11;100383.97;;;12.62;91.44
